Terminal Aerodrome Forecast
Issued by NWS Quad Cities IA IL

Home | Current Version | Previous Version | Text Only | Print | Product List | Glossary On
Versions: 1 2 3 4 5 6 7 8 9 10 11 12 13 14 15 16 17 18 19 20 21 22 23 24 25 26 27 28 29 30 31 32 33 34 35
000
FTUS43 KDVN 261313 AAB
TAFDBQ
TAF AMD
KDBQ 261313Z 2613/2712 15015G22KT 1SM SHRA BR BKN004 OVC020
     FM261400 15012KT 6SM -SHRA BR SCT015 OVC050
      TEMPO 2614/2616 3SM SHRA BR BKN015
     FM261700 18012KT P6SM VCSH BKN025
     FM262000 22013G19KT P6SM BKN035
     FM270100 23006KT P6SM SCT035 BKN250=

USA.gov is the U.S. government's official web portal to all federal, state and local government web resources and services.